createdAt,value
2023-04-16T00:01:56.187Z,97494.94
2023-04-16T00:04:25.378Z,97490.19
2023-04-16T00:06:52.937Z,97485.00
2023-04-16T00:09:20.359Z,97485.75
2023-04-16T00:11:47.783Z,97493.47
2023-04-16T00:14:15.115Z,97493.28
2023-04-16T00:16:42.548Z,97482.28
2023-04-16T00:19:10.216Z,97493.47
2023-04-16T00:21:39.210Z,97495.13
2023-04-16T00:24:06.435Z,97498.31
2023-04-16T00:26:33.858Z,97502.28
2023-04-16T00:29:01.929Z,97492.91
2023-04-16T00:31:31.215Z,97498.94
2023-04-16T00:33:59.614Z,97497.25
2023-04-16T00:36:27.943Z,97495.59
2023-04-16T00:38:56.828Z,97489.97
2023-04-16T00:41:24.080Z,97492.91
2023-04-16T00:43:51.917Z,97497.25
2023-04-16T00:46:20.394Z,97490.19
2023-04-16T00:48:48.885Z,97491.84
2023-04-16T00:51:17.001Z,97489.16
2023-04-16T00:53:45.997Z,97497.91
2023-04-16T00:56:15.092Z,97489.78
2023-04-16T00:58:42.302Z,97494.19
2023-04-16T01:01:09.817Z,97493.16
2023-04-16T01:03:39.628Z,97493.16
2023-04-16T01:06:07.579Z,97494.78
2023-04-16T01:08:35.540Z,97491.66
2023-04-16T01:11:03.461Z,97496.03
2023-04-16T01:13:33.609Z,97499.19
2023-04-16T01:16:01.553Z,97492.94
2023-04-16T01:18:29.020Z,97501.50
2023-04-16T01:20:57.880Z,97495.63
2023-04-16T01:23:25.152Z,97497.97
2023-04-16T01:25:53.849Z,97504.81
2023-04-16T01:28:21.466Z,97505.66
2023-04-16T01:30:48.950Z,97498.22
2023-04-16T01:33:32.968Z,97506.13
2023-04-16T01:36:01.731Z,97503.44
2023-04-16T01:38:29.063Z,97511.72
2023-04-16T01:40:57.798Z,97501.56
2023-04-16T01:43:25.523Z,97500.06
2023-04-16T01:45:59.482Z,97506.91
2023-04-16T01:48:26.934Z,97500.25
2023-04-16T01:50:54.463Z,97507.94
2023-04-16T01:53:23.543Z,97512.50
2023-04-16T01:55:51.020Z,97510.81
2023-04-16T01:58:18.374Z,97512.69
2023-04-16T02:00:45.966Z,97510.22
2023-04-16T02:03:13.489Z,97509.00
2023-04-16T02:05:41.357Z,97513.56
2023-04-16T02:08:08.864Z,97510.44
2023-04-16T02:10:37.816Z,97511.47
2023-04-16T02:13:05.690Z,97505.03
2023-04-16T02:15:33.308Z,97513.16
2023-04-16T02:18:00.988Z,97512.94
2023-04-16T02:20:29.089Z,97504.81
2023-04-16T02:23:00.530Z,97512.91
2023-04-16T02:25:28.994Z,97513.50
2023-04-16T02:27:59.536Z,97511.81
2023-04-16T02:30:34.889Z,97519.50
2023-04-16T02:33:05.551Z,97523.69
2023-04-16T02:35:33.811Z,97512.06
2023-04-16T02:38:01.941Z,97512.91
2023-04-16T02:40:29.856Z,97521.19
2023-04-16T02:42:59.072Z,97515.78
2023-04-16T02:45:26.478Z,97515.38
2023-04-16T02:47:54.144Z,97525.81
2023-04-16T02:50:21.607Z,97514.78
2023-04-16T02:52:49.121Z,97521.03
2023-04-16T02:55:16.842Z,97524.50
2023-04-16T02:57:44.192Z,97518.47
2023-04-16T03:00:13.635Z,97525.75
2023-04-16T03:02:43.048Z,97528.03
2023-04-16T03:05:12.317Z,97521.81
2023-04-16T03:07:40.713Z,97528.44
2023-04-16T03:10:09.639Z,97524.47
2023-04-16T03:12:37.157Z,97522.38
2023-04-16T03:15:08.318Z,97520.47
2023-04-16T03:17:37.147Z,97532.56
2023-04-16T03:20:05.117Z,97529.22
2023-04-16T03:22:32.519Z,97527.75
2023-04-16T03:25:00.320Z,97529.63
2023-04-16T03:27:27.709Z,97527.53
2023-04-16T03:29:55.351Z,97529.63
2023-04-16T03:32:22.790Z,97529.78
2023-04-16T03:34:51.550Z,97528.38
2023-04-16T03:37:18.911Z,97530.22
2023-04-16T03:39:46.362Z,97536.28
2023-04-16T03:42:13.778Z,97540.84
2023-04-16T03:44:42.147Z,97541.03
2023-04-16T03:47:09.999Z,97544.00
2023-04-16T03:49:37.498Z,97549.22
2023-04-16T03:52:06.377Z,97545.47
2023-04-16T03:54:33.904Z,97549.59
2023-04-16T03:57:15.918Z,97548.56
2023-04-16T03:59:43.401Z,97545.47
2023-04-16T04:02:10.874Z,97547.16
2023-04-16T04:04:38.412Z,97554.78
2023-04-16T04:07:07.151Z,97547.75
2023-04-16T04:09:34.578Z,97556.66
2023-04-16T04:12:04.035Z,97551.84
2023-04-16T04:14:33.093Z,97559.56
2023-04-16T04:17:00.710Z,97553.69
2023-04-16T04:19:28.098Z,97555.78
2023-04-16T04:21:55.706Z,97560.78
2023-04-16T04:24:24.585Z,97560.59
2023-04-16T04:26:51.821Z,97563.09
2023-04-16T04:29:19.274Z,97556.03
2023-04-16T04:31:47.182Z,97564.31
2023-04-16T04:34:14.603Z,97565.59
2023-04-16T04:36:42.073Z,97567.44
2023-04-16T04:39:09.822Z,97569.72
2023-04-16T04:41:38.823Z,97579.09
2023-04-16T04:44:06.456Z,97573.50
2023-04-16T04:46:33.930Z,97575.00
2023-04-16T04:49:01.318Z,97577.31
2023-04-16T04:51:28.844Z,97578.31
2023-04-16T04:53:56.206Z,97577.50
2023-04-16T04:56:23.645Z,97580.00
2023-04-16T04:58:52.376Z,97585.41
2023-04-16T05:01:20.893Z,97584.97
2023-04-16T05:03:48.383Z,97590.16
2023-04-16T05:06:16.573Z,97594.09
2023-04-16T05:08:44.034Z,97594.94
2023-04-16T05:11:11.355Z,97596.72
2023-04-16T05:13:38.789Z,97607.16
2023-04-16T05:16:08.010Z,97604.88
2023-04-16T05:18:35.653Z,97607.84
2023-04-16T05:21:03.799Z,97608.75
2023-04-16T05:23:31.219Z,97606.44
2023-04-16T05:25:58.731Z,97613.59
2023-04-16T05:28:26.163Z,97618.31
2023-04-16T05:30:53.682Z,97619.16
2023-04-16T05:33:22.552Z,97615.63
2023-04-16T05:35:49.935Z,97623.72
2023-04-16T05:38:17.332Z,97621.88
2023-04-16T05:40:44.793Z,97621.03
2023-04-16T05:43:12.248Z,97625.84
2023-04-16T05:45:41.295Z,97629.38
2023-04-16T05:48:09.310Z,97633.13
2023-04-16T05:50:38.095Z,97634.53
2023-04-16T05:53:06.190Z,97640.13
2023-04-16T05:55:33.685Z,97632.50
2023-04-16T05:58:01.195Z,97632.75
2023-04-16T06:00:28.750Z,97642.31
2023-04-16T06:02:56.480Z,97644.00
2023-04-16T06:05:24.254Z,97643.16
2023-04-16T06:07:53.043Z,97644.41
2023-04-16T06:10:20.333Z,97643.38
2023-04-16T06:12:47.742Z,97650.63
2023-04-16T06:15:15.381Z,97646.44
2023-04-16T06:17:43.832Z,97648.56
2023-04-16T06:20:12.644Z,97651.72
2023-04-16T06:22:39.890Z,97652.34
2023-04-16T06:25:09.654Z,97650.69
2023-04-16T06:27:37.201Z,97661.13
2023-04-16T06:30:06.309Z,97663.63
2023-04-16T06:32:33.770Z,97653.63
2023-04-16T06:35:01.192Z,97657.84
2023-04-16T06:37:28.630Z,97659.13
2023-04-16T06:39:56.092Z,97660.97
2023-04-16T06:42:24.834Z,97669.34
2023-04-16T06:44:52.247Z,97668.31
2023-04-16T06:47:19.660Z,97674.38
2023-04-16T06:49:47.089Z,97665.63
2023-04-16T06:52:14.516Z,97668.72
2023-04-16T06:54:41.996Z,97674.75
2023-04-16T06:57:09.409Z,97680.16
2023-04-16T06:59:38.172Z,97676.63
2023-04-16T07:02:05.778Z,97677.44
2023-04-16T07:04:34.294Z,97682.31
2023-04-16T07:07:02.744Z,97680.22
2023-04-16T07:09:30.201Z,97680.69
2023-04-16T07:11:57.692Z,97681.13
2023-04-16T07:14:25.310Z,97679.25
2023-04-16T07:16:54.206Z,97685.69
2023-04-16T07:19:21.738Z,97683.66
2023-04-16T07:21:49.166Z,97684.28
2023-04-16T07:24:17.147Z,97682.41
2023-04-16T07:26:44.577Z,97686.13
2023-04-16T07:29:12.241Z,97682.16
2023-04-16T07:31:39.941Z,97690.25
2023-04-16T07:34:08.656Z,97690.25
2023-04-16T07:36:36.246Z,97700.88
2023-04-16T07:39:04.481Z,97693.41
2023-04-16T07:41:32.172Z,97701.16
2023-04-16T07:43:59.845Z,97699.06
2023-04-16T07:46:30.653Z,97703.84
2023-04-16T07:49:08.799Z,97707.00
2023-04-16T07:51:36.408Z,97704.28
2023-04-16T07:54:03.877Z,97709.69
2023-04-16T07:56:31.441Z,97718.06
2023-04-16T07:59:07.901Z,97714.72
2023-04-16T08:01:42.450Z,97716.78
2023-04-16T08:04:11.348Z,97722.00
2023-04-16T08:06:38.872Z,97720.97
2023-04-16T08:09:06.386Z,97725.81
2023-04-16T08:11:34.177Z,97732.66
2023-04-16T08:14:01.901Z,97731.47
2023-04-16T08:16:29.309Z,97733.84
2023-04-16T08:18:56.682Z,97742.59
2023-04-16T08:21:26.075Z,97741.28
2023-04-16T08:23:53.721Z,97748.38
2023-04-16T08:26:21.197Z,97743.63
2023-04-16T08:28:48.657Z,97744.97
2023-04-16T08:31:16.178Z,97745.06
2023-04-16T08:33:43.626Z,97750.94
2023-04-16T08:36:11.151Z,97756.13
2023-04-16T08:38:39.913Z,97757.88
2023-04-16T08:41:09.315Z,97757.69
2023-04-16T08:43:39.396Z,97761.84
2023-04-16T08:46:07.876Z,97760.75
2023-04-16T08:48:36.743Z,97761.94
2023-04-16T08:51:09.322Z,97760.25
2023-04-16T08:53:48.806Z,97762.69
2023-04-16T08:56:20.065Z,97762.88
2023-04-16T08:58:49.952Z,97765.50
2023-04-16T09:01:18.588Z,97771.28
2023-04-16T09:03:48.236Z,97764.16
2023-04-16T09:06:17.001Z,97763.19
2023-04-16T09:08:48.627Z,97777.50
2023-04-16T09:11:17.915Z,97776.53
2023-04-16T09:13:46.282Z,97774.25
2023-04-16T09:16:14.234Z,97778.19
2023-04-16T09:18:41.885Z,97777.88
2023-04-16T09:21:13.380Z,97788.69
2023-04-16T09:23:41.909Z,97790.19
2023-04-16T09:26:10.721Z,97794.63
2023-04-16T09:28:42.080Z,97796.47
2023-04-16T09:31:14.624Z,97793.78
2023-04-16T09:33:42.907Z,97791.91
2023-04-16T09:36:10.758Z,97797.56
2023-04-16T09:38:48.701Z,97798.81
2023-04-16T09:41:17.768Z,97805.25
2023-04-16T09:43:54.767Z,97808.59
2023-04-16T09:46:22.700Z,97804.06
2023-04-16T09:48:50.167Z,97809.31
2023-04-16T09:51:17.682Z,97814.72
2023-04-16T09:53:45.082Z,97816.22
2023-04-16T09:56:12.999Z,97817.81
2023-04-16T09:58:42.225Z,97818.84
2023-04-16T10:01:11.431Z,97824.25
2023-04-16T10:03:40.533Z,97818.84
2023-04-16T10:06:13.248Z,97825.38
2023-04-16T10:08:43.685Z,97822.94
2023-04-16T10:11:11.376Z,97827.47
2023-04-16T10:13:38.768Z,97824.94
2023-04-16T10:16:08.527Z,97822.91
2023-04-16T10:18:36.634Z,97824.19
2023-04-16T10:21:04.643Z,97824.34
2023-04-16T10:23:32.627Z,97827.91
2023-04-16T10:26:01.528Z,97833.31
2023-04-16T10:28:29.498Z,97829.00
2023-04-16T10:30:58.274Z,97840.47
2023-04-16T10:33:29.287Z,97838.81
2023-04-16T10:36:09.010Z,97833.97
2023-04-16T10:38:39.231Z,97842.34
2023-04-16T10:41:07.877Z,97844.41
2023-04-16T10:43:41.214Z,97839.16
2023-04-16T10:46:19.958Z,97840.28
2023-04-16T10:48:50.784Z,97847.84
2023-04-16T10:51:27.786Z,97834.16
2023-04-16T10:53:56.579Z,97842.84
2023-04-16T10:56:24.327Z,97846.91
2023-04-16T10:58:54.235Z,97847.09
2023-04-16T11:01:30.403Z,97842.53
2023-04-16T11:04:01.922Z,97849.63
2023-04-16T11:06:29.829Z,97847.34
2023-04-16T11:08:57.385Z,97849.22
2023-04-16T11:11:25.479Z,97853.34
2023-04-16T11:13:56.855Z,97853.16
2023-04-16T11:16:25.282Z,97856.50
2023-04-16T11:18:53.956Z,97854.19
2023-04-16T11:21:25.214Z,97849.44
2023-04-16T11:23:53.628Z,97851.66
2023-04-16T11:26:26.026Z,97851.63
2023-04-16T11:28:54.890Z,97859.91
2023-04-16T11:31:23.463Z,97852.25
2023-04-16T11:33:51.015Z,97855.41
2023-04-16T11:36:18.722Z,97857.59
2023-04-16T11:38:47.600Z,97859.09
2023-04-16T11:41:19.823Z,97868.47
2023-04-16T11:43:47.256Z,97866.78
2023-04-16T11:46:24.500Z,97865.34
2023-04-16T11:48:56.163Z,97861.38
2023-04-16T11:51:24.071Z,97869.41
2023-04-16T11:53:54.167Z,97838.59
2023-04-16T11:56:26.128Z,97860.81
2023-04-16T11:59:08.248Z,97863.72
2023-04-16T12:01:37.752Z,97874.81
2023-04-16T12:04:06.034Z,97877.69
2023-04-16T12:06:33.791Z,97878.34
2023-04-16T12:09:22.802Z,97877.16
2023-04-16T12:11:50.193Z,97881.44
2023-04-16T12:14:17.663Z,97881.25
2023-04-16T12:16:45.413Z,97876.41
2023-04-16T12:19:13.581Z,97883.03
2023-04-16T12:21:43.349Z,97882.19
2023-04-16T12:24:13.906Z,97884.53
2023-04-16T12:26:43.469Z,97878.13
2023-04-16T12:29:15.694Z,97884.72
2023-04-16T12:31:43.297Z,97881.31
2023-04-16T12:34:10.750Z,97888.19
2023-04-16T12:36:38.508Z,97881.59
2023-04-16T12:39:06.009Z,97877.59
2023-04-16T12:41:37.230Z,97883.63
2023-04-16T12:44:07.329Z,97878.88
2023-04-16T12:46:36.874Z,97881.50
2023-04-16T12:49:04.293Z,97885.50
2023-04-16T12:51:32.214Z,97873.56
2023-04-16T12:54:00.315Z,97880.41
2023-04-16T12:56:27.890Z,97878.22
2023-04-16T12:58:56.911Z,97871.19
2023-04-16T13:01:24.721Z,97876.25
2023-04-16T13:03:52.384Z,97882.69
2023-04-16T13:06:20.767Z,97875.47
2023-04-16T13:08:48.238Z,97887.59
2023-04-16T13:11:15.821Z,97866.31
2023-04-16T13:13:43.242Z,97882.16
2023-04-16T13:16:12.647Z,97881.78
2023-04-16T13:18:40.918Z,97880.34
2023-04-16T13:21:08.517Z,97877.84
2023-04-16T13:23:36.214Z,97882.75
2023-04-16T13:26:03.658Z,97887.94
2023-04-16T13:28:31.416Z,97882.75
2023-04-16T13:30:59.570Z,97882.50
2023-04-16T13:33:28.421Z,97886.00
2023-04-16T13:35:55.926Z,97887.50
2023-04-16T13:38:23.357Z,97883.53
2023-04-16T13:40:50.999Z,97884.53
2023-04-16T13:43:18.967Z,97885.81
2023-04-16T13:45:46.498Z,97892.47
2023-04-16T13:48:14.074Z,97893.59
2023-04-16T13:50:42.868Z,97891.72
2023-04-16T13:53:10.130Z,97886.34
2023-04-16T13:55:37.544Z,97893.31
2023-04-16T13:58:07.025Z,97891.72
2023-04-16T14:00:34.645Z,97888.78
2023-04-16T14:03:02.477Z,97886.31
2023-04-16T14:05:30.012Z,97896.47
2023-04-16T14:07:58.762Z,97881.25
2023-04-16T14:10:26.024Z,97884.22
2023-04-16T14:12:53.513Z,97883.19
2023-04-16T14:15:20.937Z,97878.19
2023-04-16T14:17:48.399Z,97883.19
2023-04-16T14:20:15.917Z,97880.88
2023-04-16T14:22:44.232Z,97893.75
2023-04-16T14:25:13.128Z,97888.41
2023-04-16T14:27:41.440Z,97887.66
2023-04-16T14:30:09.680Z,97893.84
2023-04-16T14:32:37.214Z,97886.31
2023-04-16T14:35:05.657Z,97885.66
2023-04-16T14:37:35.693Z,97888.41
2023-04-16T14:40:08.642Z,97891.75
2023-04-16T14:42:37.822Z,97891.50
2023-04-16T14:45:06.753Z,97887.94
2023-04-16T14:47:34.369Z,97894.19
2023-04-16T14:50:02.660Z,97890.22
2023-04-16T14:52:31.370Z,97890.78
2023-04-16T14:54:58.636Z,97901.47
2023-04-16T14:57:26.667Z,97896.53
2023-04-16T14:59:58.504Z,97896.84
2023-04-16T15:02:26.120Z,97894.34
2023-04-16T15:04:54.348Z,97896.66
2023-04-16T15:07:22.050Z,97893.59
2023-04-16T15:09:51.528Z,97899.63
2023-04-16T15:12:22.738Z,97896.28
2023-04-16T15:14:50.292Z,97889.97
2023-04-16T15:17:19.382Z,97891.25
2023-04-16T15:19:48.817Z,97893.03
2023-04-16T15:22:16.818Z,97894.09
2023-04-16T15:24:51.168Z,97899.50
2023-04-16T15:27:19.373Z,97891.81
2023-04-16T15:29:49.278Z,97893.44
2023-04-16T15:32:16.801Z,97901.94
2023-04-16T15:34:46.541Z,97898.19
2023-04-16T15:37:14.180Z,97895.03
2023-04-16T15:39:41.653Z,97903.59
2023-04-16T15:42:09.282Z,97904.16
2023-04-16T15:44:36.779Z,97905.41
2023-04-16T15:47:06.194Z,97902.78
2023-04-16T15:49:33.578Z,97907.34
2023-04-16T15:52:02.528Z,97904.69
2023-04-16T15:54:30.819Z,97907.22
2023-04-16T15:56:58.894Z,97900.53
2023-04-16T15:59:26.843Z,97904.50
2023-04-16T16:01:54.443Z,97909.09
2023-04-16T16:04:23.015Z,97912.63
2023-04-16T16:06:50.768Z,97911.97
2023-04-16T16:09:25.836Z,97909.25
2023-04-16T16:11:54.224Z,97909.75
2023-04-16T16:14:22.355Z,97915.50
2023-04-16T16:16:50.026Z,97911.78
2023-04-16T16:19:20.354Z,97908.91
2023-04-16T16:21:47.767Z,97910.94
2023-04-16T16:24:15.491Z,97910.94
2023-04-16T16:26:44.387Z,97915.16
2023-04-16T16:29:11.964Z,97914.31
2023-04-16T16:31:39.517Z,97921.84
2023-04-16T16:34:06.961Z,97920.38
2023-04-16T16:36:36.808Z,97923.72
2023-04-16T16:39:04.716Z,97923.13
2023-04-16T16:41:32.329Z,97929.38
2023-04-16T16:44:01.039Z,97931.66
2023-04-16T16:46:28.280Z,97925.41
2023-04-16T16:48:55.658Z,97928.69
2023-04-16T16:51:23.003Z,97929.13
2023-04-16T16:53:50.518Z,97933.69
2023-04-16T16:56:18.332Z,97926.41
2023-04-16T16:58:46.224Z,97926.59
2023-04-16T17:01:15.068Z,97930.81
2023-04-16T17:03:42.651Z,97932.84
2023-04-16T17:06:10.179Z,97926.06
2023-04-16T17:08:37.806Z,97929.31
2023-04-16T17:11:05.454Z,97934.47
2023-04-16T17:13:32.938Z,97928.50
2023-04-16T17:16:01.004Z,97933.50
2023-04-16T17:18:29.798Z,97932.00
2023-04-16T17:20:57.064Z,97935.78
2023-04-16T17:23:24.557Z,97930.16
2023-04-16T17:25:51.952Z,97930.53
2023-04-16T17:28:20.207Z,97929.69
2023-04-16T17:30:51.807Z,97936.31
2023-04-16T17:33:19.527Z,97935.13
2023-04-16T17:35:48.314Z,97940.34
2023-04-16T17:38:15.563Z,97935.56
2023-04-16T17:40:42.992Z,97939.69
2023-04-16T17:43:10.597Z,97945.75
2023-04-16T17:45:38.059Z,97940.53
2023-04-16T17:48:06.312Z,97943.06
2023-04-16T17:50:33.905Z,97943.91
2023-04-16T17:53:03.716Z,97948.66
2023-04-16T17:55:31.681Z,97952.56
2023-04-16T17:58:00.393Z,97956.31
2023-04-16T18:00:27.804Z,97954.44
2023-04-16T18:02:56.668Z,97952.78
2023-04-16T18:05:24.674Z,97957.16
2023-04-16T18:07:52.117Z,97958.34
2023-04-16T18:10:21.226Z,97961.06
2023-04-16T18:12:48.691Z,97960.88
2023-04-16T18:15:16.636Z,97961.06
2023-04-16T18:17:44.058Z,97962.75
2023-04-16T18:20:12.560Z,97960.41
2023-04-16T18:22:40.053Z,97965.81
2023-04-16T18:25:07.924Z,97968.34
2023-04-16T18:27:36.781Z,97966.03
2023-04-16T18:30:05.295Z,97969.38
2023-04-16T18:32:33.480Z,97972.06
2023-04-16T18:35:01.621Z,97979.56
2023-04-16T18:37:29.383Z,97984.31
2023-04-16T18:39:58.017Z,97987.28
2023-04-16T18:42:28.250Z,97987.47
2023-04-16T18:44:57.294Z,97994.78
2023-04-16T18:47:25.047Z,97987.28
2023-04-16T18:49:52.622Z,97997.66
2023-04-16T18:52:20.022Z,97992.50
2023-04-16T18:54:47.443Z,97998.75
2023-04-16T18:57:14.849Z,98001.25
2023-04-16T18:59:42.250Z,98006.66
2023-04-16T19:02:11.237Z,98001.06
2023-04-16T19:04:38.711Z,98001.75
2023-04-16T19:07:06.197Z,97999.03
2023-04-16T19:09:33.623Z,98003.41
2023-04-16T19:12:01.800Z,98001.56
2023-04-16T19:14:29.321Z,98006.56
2023-04-16T19:16:56.781Z,98001.81
2023-04-16T19:19:25.729Z,98014.50
2023-04-16T19:21:53.305Z,98012.16
2023-04-16T19:24:20.950Z,98018.41
2023-04-16T19:26:48.633Z,98017.59
2023-04-16T19:29:17.863Z,98011.31
2023-04-16T19:31:47.217Z,98016.75
2023-04-16T19:34:15.426Z,98019.44
2023-04-16T19:36:45.262Z,98020.28
2023-04-16T19:39:13.010Z,98021.31
2023-04-16T19:41:40.699Z,98016.75
2023-04-16T19:44:08.714Z,98023.84
2023-04-16T19:46:36.640Z,98027.03
2023-04-16T19:49:04.264Z,98024.31
2023-04-16T19:51:31.886Z,98027.19
2023-04-16T19:54:01.583Z,98022.81
2023-04-16T19:56:29.181Z,98029.25
2023-04-16T19:58:56.753Z,98027.56
2023-04-16T20:01:24.885Z,98022.16
2023-04-16T20:03:53.146Z,98026.53
2023-04-16T20:06:20.668Z,98032.97
2023-04-16T20:08:48.179Z,98027.56
2023-04-16T20:11:17.615Z,98027.56
2023-04-16T20:13:46.295Z,98031.78
2023-04-16T20:16:13.690Z,98028.03
2023-04-16T20:18:46.070Z,98033.63
2023-04-16T20:21:13.801Z,98031.78
2023-04-16T20:23:41.204Z,98031.94
2023-04-16T20:26:08.880Z,98026.53
2023-04-16T20:28:37.614Z,98024.69
2023-04-16T20:31:05.087Z,98025.53
2023-04-16T20:33:32.563Z,98024.69
2023-04-16T20:35:59.936Z,98022.81
2023-04-16T20:38:32.277Z,98024.69
2023-04-16T20:41:23.067Z,98013.00
2023-04-16T20:43:52.735Z,98021.69
2023-04-16T20:46:24.289Z,98020.03
2023-04-16T20:48:52.043Z,98022.38
2023-04-16T20:51:19.483Z,98022.53
2023-04-16T20:53:47.017Z,98019.66
2023-04-16T20:56:14.988Z,98019.66
2023-04-16T20:58:43.719Z,98018.34
2023-04-16T21:01:12.574Z,98020.03
2023-04-16T21:03:40.810Z,98026.28
2023-04-16T21:06:08.608Z,98021.69
2023-04-16T21:08:36.160Z,98013.41
2023-04-16T21:11:03.718Z,98018.81
2023-04-16T21:13:31.271Z,98014.03
2023-04-16T21:15:58.770Z,98021.31
2023-04-16T21:18:27.471Z,98024.00
2023-04-16T21:20:55.598Z,98024.00
2023-04-16T21:23:22.992Z,98020.88
2023-04-16T21:25:50.396Z,98014.25
2023-04-16T21:28:17.922Z,98021.53
2023-04-16T21:30:45.298Z,98014.44
2023-04-16T21:33:12.974Z,98022.53
2023-04-16T21:35:41.737Z,98018.34
2023-04-16T21:38:09.114Z,98020.19
2023-04-16T21:40:36.494Z,98017.72
2023-04-16T21:43:03.888Z,98015.84
2023-04-16T21:45:31.347Z,98023.97
2023-04-16T21:47:58.747Z,98022.28
2023-04-16T21:50:26.185Z,98022.09
2023-04-16T21:52:54.944Z,98019.56
2023-04-16T21:55:22.848Z,98018.72
2023-04-16T21:57:50.486Z,98014.16
2023-04-16T22:00:18.344Z,98016.88
2023-04-16T22:02:45.904Z,98020.59
2023-04-16T22:05:13.494Z,98016.03
2023-04-16T22:07:41.341Z,98013.50
2023-04-16T22:10:11.382Z,98011.63
2023-04-16T22:12:40.366Z,98017.88
2023-04-16T22:15:09.126Z,98018.28
2023-04-16T22:17:36.730Z,98020.78
2023-04-16T22:20:09.242Z,98021.81
2023-04-16T22:22:36.925Z,98013.03
2023-04-16T22:25:05.148Z,98018.47
2023-04-16T22:27:34.067Z,98018.63
2023-04-16T22:30:01.810Z,98015.94
2023-04-16T22:32:30.262Z,98016.94
2023-04-16T22:34:57.786Z,98010.06
2023-04-16T22:37:25.393Z,98016.94
2023-04-16T22:39:52.780Z,98011.53
2023-04-16T22:42:21.518Z,98012.59
2023-04-16T22:44:50.554Z,98011.47
2023-04-16T22:47:17.925Z,98001.84
2023-04-16T22:49:45.332Z,98010.63
2023-04-16T22:52:12.654Z,98009.97
2023-04-16T22:54:40.057Z,98009.59
2023-04-16T22:57:07.513Z,98002.88
2023-04-16T22:59:34.844Z,98002.88
2023-04-16T23:02:03.569Z,98008.94
2023-04-16T23:04:30.746Z,98004.38
2023-04-16T23:06:58.228Z,98007.28
2023-04-16T23:09:25.584Z,98003.72
2023-04-16T23:11:53.130Z,98001.19
2023-04-16T23:14:21.293Z,98005.78
2023-04-16T23:16:48.636Z,98009.13
2023-04-16T23:19:17.476Z,98007.66
2023-04-16T23:21:45.003Z,98003.91
2023-04-16T23:24:12.413Z,98008.50
2023-04-16T23:26:39.772Z,98007.44
2023-04-16T23:29:07.093Z,98006.81
2023-04-16T23:31:34.512Z,98009.31
2023-04-16T23:34:02.027Z,98002.25
2023-04-16T23:36:31.075Z,98005.78
2023-04-16T23:38:58.451Z,98001.19
2023-04-16T23:41:25.826Z,98000.38
2023-04-16T23:43:53.290Z,98001.19
2023-04-16T23:46:20.923Z,98002.03
2023-04-16T23:48:48.371Z,98004.56
2023-04-16T23:51:15.808Z,98000.19
2023-04-16T23:53:44.559Z,97997.13
2023-04-16T23:56:11.804Z,98002.88
2023-04-16T23:58:39.255Z,98003.53
